createdAt,value
2017-12-06T00:00:25.298Z,63.30
2017-12-06T00:02:06.001Z,63.30
2017-12-06T00:03:45.116Z,64.50
2017-12-06T00:05:24.707Z,64.20
2017-12-06T00:07:06.892Z,65.50
2017-12-06T00:08:46.488Z,65.70
2017-12-06T00:10:25.891Z,65.70
2017-12-06T00:12:10.796Z,64.70
2017-12-06T00:15:44.794Z,64.10
2017-12-06T00:17:25.096Z,64.60
2017-12-06T00:19:09.187Z,64.90
2017-12-06T00:20:50.521Z,64.50
2017-12-06T00:22:31.323Z,66.70
2017-12-06T00:24:12.512Z,66.70
2017-12-06T00:25:53.017Z,68.40
2017-12-06T00:27:35.523Z,67.80
2017-12-06T00:29:14.636Z,67.60
2017-12-06T00:30:56.128Z,67.10
2017-12-06T00:32:34.178Z,68.00
2017-12-06T00:34:12.008Z,68.70
2017-12-06T00:35:53.066Z,69.30
2017-12-06T00:37:37.962Z,68.00
2017-12-06T00:39:19.237Z,68.10
2017-12-06T00:41:00.651Z,68.10
2017-12-06T00:42:41.742Z,67.20
2017-12-06T00:44:23.950Z,67.10
2017-12-06T00:46:08.156Z,66.30
2017-12-06T00:47:49.047Z,68.60
2017-12-06T00:49:28.455Z,68.40
2017-12-06T00:51:08.559Z,66.40
2017-12-06T00:52:51.056Z,67.70
2017-12-06T00:54:30.147Z,68.60
2017-12-06T00:56:11.851Z,68.30
2017-12-06T00:57:54.684Z,68.70
2017-12-06T00:59:34.144Z,67.50
2017-12-06T01:01:14.729Z,66.40
2017-12-06T01:02:54.248Z,66.90
2017-12-06T01:04:36.220Z,66.90
2017-12-06T01:06:13.646Z,65.30
2017-12-06T01:07:56.131Z,65.60
2017-12-06T01:09:37.749Z,67.80
2017-12-06T01:11:26.127Z,67.10
2017-12-06T01:13:10.009Z,66.90
2017-12-06T01:14:47.919Z,66.00
2017-12-06T01:16:30.460Z,66.10
2017-12-06T01:18:08.725Z,65.70
2017-12-06T01:19:49.226Z,64.00
2017-12-06T01:21:29.130Z,65.10
2017-12-06T01:23:08.226Z,67.70
2017-12-06T01:24:47.530Z,67.50
2017-12-06T01:26:26.130Z,66.70
2017-12-06T01:28:06.531Z,65.70
2017-12-06T01:29:46.725Z,66.60
2017-12-06T01:31:26.348Z,66.80
2017-12-06T01:33:05.530Z,66.90
2017-12-06T01:34:44.912Z,67.70
2017-12-06T01:36:24.112Z,66.50
2017-12-06T01:38:03.213Z,66.50
2017-12-06T01:39:42.122Z,67.50
2017-12-06T01:41:21.004Z,68.30
2017-12-06T01:43:00.008Z,69.40
2017-12-06T01:44:40.008Z,69.80
2017-12-06T01:46:19.512Z,69.80
2017-12-06T01:47:59.701Z,69.20
2017-12-06T01:49:38.909Z,69.10
2017-12-06T01:51:17.402Z,67.80
2017-12-06T01:52:56.713Z,68.40
2017-12-06T01:54:36.297Z,70.20
2017-12-06T01:56:25.799Z,70.70
2017-12-06T01:58:05.303Z,69.00
2017-12-06T01:59:44.506Z,67.20
2017-12-06T02:01:26.002Z,67.10
2017-12-06T02:03:05.905Z,68.90
2017-12-06T02:04:46.608Z,69.40
2017-12-06T02:06:26.114Z,68.10
2017-12-06T02:08:05.542Z,67.20
2017-12-06T02:09:46.227Z,66.50
2017-12-06T02:11:25.229Z,68.40
2017-12-06T02:13:05.434Z,67.70
2017-12-06T02:14:44.940Z,69.00
2017-12-06T02:16:24.142Z,69.30
2017-12-06T02:18:03.950Z,70.10
2017-12-06T02:19:43.955Z,70.00
2017-12-06T02:21:24.754Z,68.70
2017-12-06T02:23:03.961Z,68.90
2017-12-06T02:24:41.845Z,67.40
2017-12-06T02:26:19.722Z,67.00
2017-12-06T02:27:58.565Z,67.00
2017-12-06T02:29:37.963Z,66.10
2017-12-06T02:32:56.114Z,68.90
2017-12-06T02:34:33.033Z,68.50
2017-12-06T02:36:11.896Z,67.40
2017-12-06T02:37:52.982Z,67.20
2017-12-06T02:39:44.156Z,65.60
2017-12-06T02:42:09.650Z,65.90
2017-12-06T02:45:32.249Z,66.00
2017-12-06T02:47:12.049Z,68.00
2017-12-06T02:48:50.842Z,68.30
2017-12-06T02:50:30.542Z,67.90
2017-12-06T02:52:11.264Z,67.80
2017-12-06T02:53:51.230Z,68.10
2017-12-06T02:55:32.117Z,68.10
2017-12-06T02:57:11.329Z,69.40
2017-12-06T02:58:51.644Z,69.60
2017-12-06T03:00:30.626Z,67.90
2017-12-06T03:02:09.326Z,67.90
2017-12-06T03:03:50.028Z,68.90
2017-12-06T03:05:30.528Z,68.30
2017-12-06T03:07:10.224Z,67.20
2017-12-06T03:08:49.126Z,68.50
2017-12-06T03:10:28.454Z,67.50
2017-12-06T03:12:08.851Z,66.50
2017-12-06T03:13:49.337Z,67.20
2017-12-06T03:15:28.435Z,66.50
2017-12-06T03:17:07.938Z,65.60
2017-12-06T03:18:46.654Z,66.40
2017-12-06T03:20:26.051Z,67.80
2017-12-06T03:22:05.151Z,66.70
2017-12-06T03:23:47.814Z,67.00
2017-12-06T03:25:26.852Z,67.00
2017-12-06T03:27:06.662Z,64.00
2017-12-06T03:28:46.162Z,63.30
2017-12-06T03:30:32.075Z,64.50
2017-12-06T03:32:18.564Z,63.00
2017-12-06T03:33:58.168Z,63.10
2017-12-06T03:35:37.085Z,65.30
2017-12-06T03:37:17.267Z,65.70
2017-12-06T03:38:56.872Z,66.40
2017-12-06T03:40:39.076Z,65.50
2017-12-06T03:42:19.906Z,65.50
2017-12-06T03:43:58.769Z,67.70
2017-12-06T03:45:39.178Z,66.50
2017-12-06T03:47:18.261Z,66.30
2017-12-06T03:48:57.666Z,63.60
2017-12-06T03:50:36.658Z,63.50
2017-12-06T03:52:16.353Z,62.50
2017-12-06T03:53:55.256Z,61.50
2017-12-06T03:55:35.163Z,62.20
2017-12-06T03:57:13.753Z,63.60
2017-12-06T03:58:53.149Z,63.30
2017-12-06T04:00:33.743Z,65.60
2017-12-06T04:02:12.339Z,65.50
2017-12-06T04:03:53.656Z,63.40
2017-12-06T04:05:33.272Z,63.30
2017-12-06T04:07:13.945Z,63.40
2017-12-06T04:08:58.760Z,66.80
2017-12-06T04:10:37.746Z,66.70
2017-12-06T04:12:15.844Z,64.80
2017-12-06T04:13:54.850Z,63.10
2017-12-06T04:15:35.442Z,63.00
2017-12-06T04:17:16.849Z,62.80
2017-12-06T04:19:01.446Z,65.50
2017-12-06T04:20:48.322Z,66.10
2017-12-06T04:22:28.054Z,63.60
2017-12-06T04:24:12.954Z,62.40
2017-12-06T04:25:54.274Z,61.60
2017-12-06T04:27:33.862Z,63.10
2017-12-06T04:29:15.752Z,63.60
2017-12-06T04:30:54.759Z,63.60
2017-12-06T04:32:34.367Z,63.60
2017-12-06T04:34:13.087Z,65.70
2017-12-06T04:35:54.484Z,68.10
2017-12-06T04:37:33.755Z,68.00
2017-12-06T04:39:13.359Z,66.80
2017-12-06T04:40:54.497Z,66.80
2017-12-06T04:42:36.366Z,66.00
2017-12-06T04:44:18.964Z,65.90
2017-12-06T04:45:58.669Z,66.60
2017-12-06T04:47:38.285Z,66.60
2017-12-06T04:49:16.870Z,68.00
2017-12-06T04:51:00.368Z,67.20
2017-12-06T04:52:40.005Z,68.60
2017-12-06T04:54:18.595Z,67.30
2017-12-06T04:55:58.077Z,66.70
2017-12-06T04:57:37.613Z,68.70
2017-12-06T05:00:56.715Z,66.60
2017-12-06T05:02:33.865Z,67.50
2017-12-06T05:04:12.204Z,66.80
2017-12-06T05:05:49.548Z,66.20
2017-12-06T05:07:30.307Z,64.90
2017-12-06T05:09:10.315Z,63.70
2017-12-06T05:10:48.634Z,63.50
2017-12-06T05:12:27.418Z,62.70
2017-12-06T05:14:07.920Z,62.90
2017-12-06T05:15:47.222Z,64.90
2017-12-06T05:17:26.124Z,64.20
2017-12-06T05:20:49.735Z,63.30
2017-12-06T05:22:28.733Z,62.60
2017-12-06T05:24:15.040Z,62.40
2017-12-06T05:25:53.745Z,63.40
2017-12-06T05:27:33.254Z,66.20
2017-12-06T05:29:12.743Z,66.10
2017-12-06T05:30:52.533Z,66.10
2017-12-06T05:32:31.631Z,64.10
2017-12-06T05:34:10.453Z,63.50
2017-12-06T05:35:49.558Z,63.80
2017-12-06T05:37:29.332Z,68.40
2017-12-06T05:39:08.231Z,68.40
2017-12-06T05:40:48.325Z,68.60
2017-12-06T05:42:27.645Z,69.60
2017-12-06T05:44:06.528Z,69.60
2017-12-06T05:45:46.147Z,69.70
2017-12-06T05:47:31.529Z,68.60
2017-12-06T05:49:10.024Z,70.20
2017-12-06T05:50:50.521Z,70.30
2017-12-06T05:52:29.120Z,69.20
2017-12-06T05:54:08.227Z,69.60
2017-12-06T05:55:46.844Z,68.90
2017-12-06T05:57:26.521Z,69.40
2017-12-06T05:59:05.419Z,69.20
2017-12-06T06:00:45.722Z,69.30
2017-12-06T06:02:24.524Z,67.80
2017-12-06T06:04:03.228Z,66.80
2017-12-06T06:05:43.538Z,64.20
2017-12-06T06:07:22.522Z,65.40
2017-12-06T06:09:01.423Z,66.80
2017-12-06T06:10:40.326Z,68.00
2017-12-06T06:13:55.919Z,67.80
2017-12-06T06:15:34.828Z,67.30
2017-12-06T06:17:14.535Z,68.90
2017-12-06T06:18:54.828Z,67.50
2017-12-06T06:20:33.929Z,67.40
2017-12-06T06:22:13.422Z,67.60
2017-12-06T06:23:51.923Z,67.50
2017-12-06T06:25:31.218Z,68.40
2017-12-06T06:27:10.716Z,67.80
2017-12-06T06:28:51.043Z,66.90
2017-12-06T06:30:31.719Z,67.00
2017-12-06T06:32:18.715Z,67.50
2017-12-06T06:33:57.611Z,67.10
2017-12-06T06:35:36.311Z,67.60
2017-12-06T06:37:22.327Z,65.00
2017-12-06T06:39:00.925Z,63.70
2017-12-06T06:40:42.225Z,62.30
2017-12-06T06:42:21.153Z,64.40
2017-12-06T06:44:00.235Z,66.30
2017-12-06T06:45:39.853Z,67.40
2017-12-06T06:47:19.435Z,67.00
2017-12-06T06:49:00.651Z,66.70
2017-12-06T06:50:39.057Z,68.20
2017-12-06T06:52:19.450Z,65.90
2017-12-06T06:53:59.769Z,67.10
2017-12-06T06:55:39.262Z,67.10
2017-12-06T06:57:18.569Z,67.70
2017-12-06T06:58:58.274Z,69.50
2017-12-06T07:00:38.571Z,69.50
2017-12-06T07:02:20.273Z,68.30
2017-12-06T07:03:59.357Z,68.30
2017-12-06T07:05:37.957Z,68.20
2017-12-06T07:07:17.187Z,69.40
2017-12-06T07:08:56.895Z,69.20
2017-12-06T07:10:38.567Z,68.80
2017-12-06T07:12:18.273Z,68.00
2017-12-06T07:13:57.891Z,68.00
2017-12-06T07:15:37.106Z,68.90
2017-12-06T07:17:17.763Z,68.50
2017-12-06T07:18:58.067Z,68.50
2017-12-06T07:20:37.067Z,68.40
2017-12-06T07:22:17.272Z,67.30
2017-12-06T07:23:56.887Z,67.00
2017-12-06T07:25:37.767Z,67.00
2017-12-06T07:27:16.993Z,68.20
2017-12-06T07:28:57.877Z,69.60
2017-12-06T07:30:37.178Z,67.90
2017-12-06T07:32:23.022Z,65.80
2017-12-06T07:34:01.771Z,66.90
2017-12-06T07:35:42.733Z,67.30
2017-12-06T07:37:21.584Z,66.50
2017-12-06T07:39:01.477Z,67.30
2017-12-06T07:40:41.277Z,65.30
2017-12-06T07:42:20.243Z,66.80
2017-12-06T07:43:59.281Z,68.20
2017-12-06T07:45:38.676Z,69.10
2017-12-06T07:47:18.770Z,69.20
2017-12-06T07:48:59.579Z,67.60
2017-12-06T07:50:38.186Z,67.50
2017-12-06T07:52:19.962Z,67.20
2017-12-06T07:53:58.761Z,66.80
2017-12-06T07:55:37.359Z,67.00
2017-12-06T07:57:16.853Z,63.60
2017-12-06T07:58:56.659Z,63.60
2017-12-06T08:00:39.872Z,62.20
2017-12-06T08:02:19.474Z,62.50
2017-12-06T08:04:02.966Z,62.60
2017-12-06T08:05:43.269Z,64.00
2017-12-06T08:07:22.554Z,64.00
2017-12-06T08:09:01.852Z,62.40
2017-12-06T08:10:40.671Z,62.40
2017-12-06T08:12:20.552Z,63.40
2017-12-06T08:13:59.950Z,64.20
2017-12-06T08:15:39.445Z,64.20
2017-12-06T08:17:18.855Z,66.80
2017-12-06T08:18:57.957Z,65.80
2017-12-06T08:20:36.550Z,65.40
2017-12-06T08:22:16.045Z,65.20
2017-12-06T08:23:55.441Z,62.70
2017-12-06T08:25:34.645Z,62.70
2017-12-06T08:27:13.344Z,62.50
2017-12-06T08:28:53.243Z,61.80
2017-12-06T08:30:32.652Z,62.40
2017-12-06T08:32:16.059Z,62.30
2017-12-06T08:33:55.462Z,64.60
2017-12-06T08:35:34.249Z,64.50
2017-12-06T08:37:13.360Z,63.90
2017-12-06T08:38:52.159Z,64.00
2017-12-06T08:40:32.171Z,63.20
2017-12-06T08:42:11.384Z,62.90
2017-12-06T08:43:50.381Z,62.30
2017-12-06T08:45:31.282Z,62.70
2017-12-06T08:47:10.188Z,62.00
2017-12-06T08:48:49.089Z,62.60
2017-12-06T08:50:29.095Z,64.20
2017-12-06T08:52:07.624Z,64.40
2017-12-06T08:53:44.661Z,63.60
2017-12-06T08:55:23.810Z,63.80
2017-12-06T08:57:03.627Z,63.40
2017-12-06T08:58:42.610Z,62.40
2017-12-06T09:00:24.524Z,62.20
2017-12-06T09:02:07.309Z,62.80
2017-12-06T09:03:49.034Z,62.80
2017-12-06T09:05:28.197Z,64.50
2017-12-06T09:07:07.730Z,66.80
2017-12-06T09:08:48.616Z,65.40
2017-12-06T09:10:33.220Z,64.20
2017-12-06T09:12:12.232Z,66.70
2017-12-06T09:13:53.057Z,66.80
2017-12-06T09:15:32.842Z,65.70
2017-12-06T09:17:14.835Z,67.20
2017-12-06T09:18:56.135Z,67.50
2017-12-06T09:20:34.949Z,67.40
2017-12-06T09:22:15.445Z,66.70
2017-12-06T09:23:54.638Z,66.60
2017-12-06T09:25:35.441Z,67.90
2017-12-06T09:27:18.444Z,66.40
2017-12-06T09:28:59.353Z,65.90
2017-12-06T09:30:38.449Z,66.10
2017-12-06T09:32:20.345Z,66.40
2017-12-06T09:34:00.130Z,65.00
2017-12-06T09:35:39.247Z,63.30
2017-12-06T09:37:19.447Z,62.60
2017-12-06T09:38:59.939Z,62.70
2017-12-06T09:40:41.853Z,62.60
2017-12-06T09:42:22.633Z,63.90
2017-12-06T09:44:02.106Z,64.70
2017-12-06T09:45:41.450Z,64.50
2017-12-06T09:47:22.676Z,64.00
2017-12-06T09:49:01.858Z,63.90
2017-12-06T09:50:41.943Z,63.00
2017-12-06T09:52:21.745Z,63.10
2017-12-06T09:54:01.352Z,63.90
2017-12-06T09:55:40.241Z,64.70
2017-12-06T09:57:22.556Z,62.90
2017-12-06T09:59:05.745Z,62.90
2017-12-06T10:00:43.766Z,64.90
2017-12-06T10:02:22.746Z,65.10
2017-12-06T10:03:59.934Z,65.60
2017-12-06T10:05:40.544Z,66.10
2017-12-06T10:07:19.007Z,65.40
2017-12-06T10:08:55.858Z,65.30
2017-12-06T10:10:35.835Z,62.40
2017-12-06T10:12:15.339Z,62.40
2017-12-06T10:15:31.446Z,62.60
2017-12-06T10:17:11.342Z,63.70
2017-12-06T10:18:51.141Z,64.20
2017-12-06T10:20:30.589Z,64.90
2017-12-06T10:22:29.754Z,63.80
2017-12-06T10:24:10.793Z,63.70
2017-12-06T10:25:57.059Z,65.30
2017-12-06T10:27:35.897Z,65.20
2017-12-06T10:29:15.378Z,65.00
2017-12-06T10:30:54.778Z,66.00
2017-12-06T10:32:34.776Z,64.60
2017-12-06T10:34:15.277Z,64.00
2017-12-06T10:35:59.977Z,63.10
2017-12-06T10:37:39.625Z,65.10
2017-12-06T10:39:18.381Z,64.70
2017-12-06T10:40:57.292Z,64.80
2017-12-06T10:42:36.181Z,65.60
2017-12-06T10:44:16.591Z,65.60
2017-12-06T10:45:57.883Z,65.30
2017-12-06T10:47:37.085Z,66.00
2017-12-06T10:49:17.796Z,66.00
2017-12-06T10:50:56.585Z,64.20
2017-12-06T10:52:36.816Z,62.60
2017-12-06T10:54:16.487Z,62.30
2017-12-06T10:55:54.981Z,63.60
2017-12-06T10:59:09.374Z,64.40
2017-12-06T11:00:49.676Z,63.10
2017-12-06T11:02:29.749Z,63.90
2017-12-06T11:04:09.179Z,63.90
2017-12-06T11:05:48.474Z,64.00
2017-12-06T11:07:28.747Z,64.00
2017-12-06T11:09:07.964Z,62.80
2017-12-06T11:10:48.463Z,61.60
2017-12-06T11:12:27.350Z,61.70
2017-12-06T11:14:07.672Z,63.90
2017-12-06T11:15:46.915Z,63.90
2017-12-06T11:17:26.169Z,64.90
2017-12-06T11:19:05.960Z,62.50
2017-12-06T11:20:44.865Z,62.40
2017-12-06T11:22:24.071Z,63.70
2017-12-06T11:24:05.065Z,64.30
2017-12-06T11:25:49.866Z,64.30
2017-12-06T11:27:28.783Z,64.30
2017-12-06T11:29:08.725Z,63.00
2017-12-06T11:30:49.873Z,62.20
2017-12-06T11:32:29.559Z,62.70
2017-12-06T11:34:08.152Z,62.70
2017-12-06T11:35:49.372Z,62.00
2017-12-06T11:37:28.462Z,62.10
2017-12-06T11:39:08.351Z,61.80
2017-12-06T11:40:49.053Z,60.50
2017-12-06T11:42:27.773Z,61.20
2017-12-06T11:44:07.452Z,62.40
2017-12-06T11:45:47.656Z,62.80
2017-12-06T11:47:28.755Z,61.90
2017-12-06T11:49:07.656Z,61.70
2017-12-06T11:50:47.049Z,60.20
2017-12-06T11:52:26.053Z,59.70
2017-12-06T11:54:05.750Z,60.90
2017-12-06T11:55:46.003Z,60.40
2017-12-06T11:57:25.166Z,60.40
2017-12-06T11:59:05.808Z,60.10
2017-12-06T12:00:46.081Z,59.30
2017-12-06T12:02:27.159Z,61.70
2017-12-06T12:04:08.483Z,63.30
2017-12-06T12:05:49.080Z,63.10
2017-12-06T12:07:29.277Z,60.60
2017-12-06T12:11:25.331Z,60.80
2017-12-06T12:13:30.097Z,61.30
2017-12-06T12:15:32.600Z,60.70
2017-12-06T12:17:14.308Z,60.60
2017-12-06T12:18:58.504Z,59.80
2017-12-06T12:20:38.304Z,62.20
2017-12-06T12:22:17.612Z,62.90
2017-12-06T12:23:58.019Z,62.70
2017-12-06T12:25:37.114Z,62.70
2017-12-06T12:27:16.124Z,62.10
2017-12-06T12:28:56.907Z,61.90
2017-12-06T12:30:41.018Z,61.70
2017-12-06T12:32:21.114Z,63.30
2017-12-06T12:34:00.015Z,63.10
2017-12-06T12:35:41.125Z,61.90
2017-12-06T12:37:27.815Z,62.10
2017-12-06T12:39:06.810Z,62.10
2017-12-06T12:40:46.507Z,61.40
2017-12-06T12:42:28.801Z,61.20
2017-12-06T12:44:12.903Z,61.90
2017-12-06T12:45:54.500Z,60.90
2017-12-06T12:47:36.199Z,60.90
2017-12-06T12:49:15.822Z,62.20
2017-12-06T12:50:56.196Z,64.30
2017-12-06T12:52:35.903Z,64.30
2017-12-06T12:54:16.507Z,63.70
2017-12-06T12:55:56.214Z,63.70
2017-12-06T12:57:41.909Z,62.50
2017-12-06T12:59:22.004Z,62.60
2017-12-06T13:01:01.301Z,62.60
2017-12-06T13:02:41.697Z,61.90
2017-12-06T13:04:23.898Z,61.10
2017-12-06T13:06:06.603Z,60.60
2017-12-06T13:07:54.025Z,60.50
2017-12-06T13:09:32.806Z,62.10
2017-12-06T13:11:15.606Z,62.00
2017-12-06T13:13:00.629Z,61.30
2017-12-06T13:14:43.570Z,61.80
2017-12-06T13:16:23.234Z,61.80
2017-12-06T13:18:03.722Z,61.50
2017-12-06T13:19:43.947Z,61.50
2017-12-06T13:21:29.337Z,61.50
2017-12-06T13:23:09.135Z,63.70
2017-12-06T13:24:49.635Z,63.10
2017-12-06T13:26:29.349Z,62.30
2017-12-06T13:28:11.737Z,62.20
2017-12-06T13:29:53.741Z,63.80
2017-12-06T13:31:34.146Z,63.60
2017-12-06T13:33:15.755Z,64.90
2017-12-06T13:34:56.364Z,64.90
2017-12-06T13:36:36.057Z,64.90
2017-12-06T13:38:15.757Z,62.20
2017-12-06T13:39:55.639Z,62.20
2017-12-06T13:41:36.552Z,63.50
2017-12-06T13:43:16.951Z,64.00
2017-12-06T13:44:55.465Z,65.00
2017-12-06T13:46:35.650Z,65.00
2017-12-06T13:48:19.256Z,64.80
2017-12-06T13:49:59.842Z,63.70
2017-12-06T13:51:39.845Z,63.50
2017-12-06T13:53:19.840Z,64.50
2017-12-06T13:54:59.240Z,64.50
2017-12-06T13:56:41.652Z,63.60
2017-12-06T13:58:21.737Z,63.60
2017-12-06T14:00:00.843Z,62.80
2017-12-06T14:01:40.733Z,61.80
2017-12-06T14:03:21.135Z,61.80
2017-12-06T14:05:00.332Z,63.70
2017-12-06T14:06:44.830Z,63.70
2017-12-06T14:08:26.629Z,63.80
2017-12-06T14:11:51.133Z,64.00
2017-12-06T14:13:32.845Z,62.80
2017-12-06T14:15:12.729Z,62.90
2017-12-06T14:16:55.037Z,62.80
2017-12-06T14:18:36.621Z,65.10
2017-12-06T14:20:16.145Z,64.70
2017-12-06T14:21:58.726Z,64.50
2017-12-06T14:23:38.221Z,64.20
2017-12-06T14:25:18.024Z,63.80
2017-12-06T14:27:01.710Z,64.70
2017-12-06T14:28:43.814Z,63.60
2017-12-06T14:30:28.513Z,63.70
2017-12-06T14:32:09.124Z,63.60
2017-12-06T14:33:49.912Z,65.20
2017-12-06T14:35:31.822Z,65.20
2017-12-06T14:37:19.506Z,64.20
2017-12-06T14:38:58.711Z,64.20
2017-12-06T14:40:40.009Z,64.50
2017-12-06T14:42:20.019Z,65.30
2017-12-06T14:43:59.813Z,63.70
2017-12-06T14:45:42.711Z,63.50
2017-12-06T14:47:21.709Z,63.50
2017-12-06T14:49:01.610Z,64.70
2017-12-06T14:50:41.352Z,63.30
2017-12-06T14:52:20.920Z,63.20
2017-12-06T14:54:04.424Z,62.60
2017-12-06T14:55:45.953Z,62.40
2017-12-06T14:57:26.746Z,63.90
2017-12-06T14:59:12.752Z,65.20
2017-12-06T15:00:53.059Z,64.50
2017-12-06T15:02:33.969Z,63.30
2017-12-06T15:04:13.478Z,63.20
2017-12-06T15:05:52.588Z,63.00
2017-12-06T15:07:33.076Z,63.20
2017-12-06T15:09:13.382Z,64.40
2017-12-06T15:10:53.503Z,64.80
2017-12-06T15:12:37.794Z,66.00
2017-12-06T15:14:13.484Z,66.10
2017-12-06T15:15:53.411Z,67.00
2017-12-06T15:17:46.800Z,66.70
2017-12-06T15:19:31.687Z,67.20
2017-12-06T15:21:14.495Z,66.10
2017-12-06T15:22:53.791Z,65.00
2017-12-06T15:24:33.291Z,65.10
2017-12-06T15:26:13.188Z,64.70
2017-12-06T15:27:53.390Z,66.00
2017-12-06T15:29:33.587Z,66.60
2017-12-06T15:31:13.377Z,65.40
2017-12-06T15:32:54.982Z,64.10
2017-12-06T15:34:40.073Z,64.70
2017-12-06T15:36:20.466Z,64.70
2017-12-06T15:38:00.777Z,65.40
2017-12-06T15:39:46.170Z,65.10
2017-12-06T15:41:23.901Z,64.90
2017-12-06T15:43:01.855Z,66.10
2017-12-06T15:44:39.267Z,66.00
2017-12-06T15:46:25.172Z,66.40
2017-12-06T15:48:04.566Z,65.70
2017-12-06T15:49:47.775Z,65.30
2017-12-06T15:51:28.162Z,65.10
2017-12-06T15:53:07.663Z,65.00
2017-12-06T15:54:50.400Z,66.00
2017-12-06T15:56:29.148Z,66.00
2017-12-06T15:58:08.783Z,65.80
2017-12-06T15:59:48.382Z,65.70
2017-12-06T16:01:32.480Z,65.10
2017-12-06T16:03:15.073Z,65.10
2017-12-06T16:04:54.662Z,65.90
2017-12-06T16:06:35.475Z,65.30
2017-12-06T16:08:17.694Z,66.60
2017-12-06T16:10:03.590Z,68.70
2017-12-06T16:11:44.494Z,67.70
2017-12-06T16:13:23.328Z,67.80
2017-12-06T16:15:02.787Z,67.80
2017-12-06T16:16:42.287Z,66.80
2017-12-06T16:18:22.300Z,66.80
2017-12-06T16:21:43.091Z,65.40
2017-12-06T16:23:25.777Z,65.20
2017-12-06T16:25:05.897Z,65.40
2017-12-06T16:26:47.293Z,66.80
2017-12-06T16:28:27.589Z,67.50
2017-12-06T16:30:07.295Z,67.40
2017-12-06T16:31:50.822Z,67.70
2017-12-06T16:33:30.189Z,67.90
2017-12-06T16:35:21.889Z,66.80
2017-12-06T16:37:36.592Z,66.30
2017-12-06T16:39:15.988Z,66.20
2017-12-06T16:40:55.484Z,65.40
2017-12-06T16:42:34.692Z,65.60
2017-12-06T16:44:12.402Z,67.00
2017-12-06T16:45:53.098Z,65.80
2017-12-06T16:47:33.783Z,65.20
2017-12-06T16:49:12.881Z,65.20
2017-12-06T16:50:56.279Z,64.50
2017-12-06T16:52:40.394Z,64.10
2017-12-06T16:54:17.414Z,64.20
2017-12-06T16:55:54.579Z,63.30
2017-12-06T16:57:31.955Z,64.00
2017-12-06T16:59:11.861Z,64.60
2017-12-06T17:00:52.899Z,64.00
2017-12-06T17:02:32.583Z,64.80
2017-12-06T17:04:12.417Z,64.20
2017-12-06T17:05:52.399Z,63.90
2017-12-06T17:07:33.002Z,63.90
2017-12-06T17:11:01.623Z,63.50
2017-12-06T17:12:44.692Z,63.60
2017-12-06T17:14:28.491Z,64.40
2017-12-06T17:16:24.469Z,64.40
2017-12-06T17:18:05.169Z,65.80
2017-12-06T17:19:46.324Z,65.80
2017-12-06T17:21:39.091Z,65.80
2017-12-06T17:23:23.474Z,65.20
2017-12-06T17:25:08.470Z,65.40
2017-12-06T17:26:53.948Z,65.10
2017-12-06T17:28:47.010Z,66.10
2017-12-06T17:32:02.914Z,64.40
2017-12-06T17:33:43.850Z,64.40
2017-12-06T17:35:28.933Z,65.00
2017-12-06T17:37:08.742Z,65.80
2017-12-06T17:38:55.338Z,66.90
2017-12-06T17:40:36.153Z,68.60
2017-12-06T17:42:17.536Z,68.90
2017-12-06T17:43:59.049Z,67.40
2017-12-06T17:45:38.867Z,66.70
2017-12-06T17:47:19.572Z,66.70
2017-12-06T17:49:01.379Z,66.20
2017-12-06T17:50:49.435Z,66.00
2017-12-06T17:52:28.993Z,66.40
2017-12-06T17:54:13.481Z,67.80
2017-12-06T17:55:54.295Z,68.80
2017-12-06T17:57:35.588Z,65.40
2017-12-06T17:59:20.213Z,65.30
2017-12-06T18:01:03.097Z,65.20
2017-12-06T18:02:49.993Z,64.20
2017-12-06T18:04:31.835Z,64.20
2017-12-06T18:06:15.397Z,65.30
2017-12-06T18:07:56.392Z,64.00
2017-12-06T18:09:35.920Z,64.90
2017-12-06T18:11:20.403Z,65.90
2017-12-06T18:13:01.096Z,65.60
2017-12-06T18:14:42.301Z,67.20
2017-12-06T18:16:26.976Z,67.20
2017-12-06T18:18:07.299Z,66.60
2017-12-06T18:19:49.555Z,68.80
2017-12-06T18:21:31.200Z,68.80
2017-12-06T18:23:11.281Z,69.20
2017-12-06T18:24:57.689Z,69.10
2017-12-06T18:26:36.872Z,68.30
2017-12-06T18:28:19.405Z,67.10
2017-12-06T18:30:01.455Z,67.00
2017-12-06T18:31:48.227Z,67.00
2017-12-06T18:33:35.193Z,66.60
2017-12-06T18:35:19.575Z,65.20
2017-12-06T18:37:09.598Z,64.80
2017-12-06T18:40:54.975Z,66.10
2017-12-06T18:42:35.868Z,65.80
2017-12-06T18:44:16.771Z,66.40
2017-12-06T18:46:04.178Z,66.40
2017-12-06T18:47:47.463Z,67.10
2017-12-06T18:49:27.768Z,67.10
2017-12-06T18:51:13.866Z,66.10
2017-12-06T18:52:57.699Z,65.70
2017-12-06T18:54:41.187Z,64.60
2017-12-06T18:56:26.225Z,64.40
2017-12-06T18:58:15.764Z,64.00
2017-12-06T18:59:56.529Z,63.90
2017-12-06T19:01:41.112Z,64.10
2017-12-06T19:03:30.340Z,64.60
2017-12-06T19:05:15.245Z,64.50
2017-12-06T19:06:59.731Z,64.20
2017-12-06T19:08:44.821Z,64.60
2017-12-06T19:12:03.514Z,64.50
2017-12-06T19:13:46.630Z,66.40
2017-12-06T19:15:36.936Z,66.00
2017-12-06T19:17:18.536Z,65.30
2017-12-06T19:18:59.440Z,64.80
2017-12-06T19:20:38.339Z,64.80
2017-12-06T19:22:22.646Z,64.50
2017-12-06T19:24:01.774Z,64.50
2017-12-06T19:25:42.446Z,64.00
2017-12-06T19:27:29.338Z,65.70
2017-12-06T19:29:23.745Z,65.70
2017-12-06T19:31:17.022Z,64.50
2017-12-06T19:32:57.693Z,63.80
2017-12-06T19:34:42.108Z,63.80
2017-12-06T19:36:34.308Z,63.90
2017-12-06T19:43:13.002Z,63.60
2017-12-06T19:45:36.790Z,63.70
2017-12-06T19:48:12.005Z,63.20
2017-12-06T19:50:27.337Z,63.90
2017-12-06T20:04:05.011Z,64.80
2017-12-06T20:10:45.978Z,62.70
2017-12-06T20:13:07.789Z,61.30
2017-12-06T20:17:54.898Z,61.20
2017-12-06T20:27:13.309Z,61.50
2017-12-06T20:29:39.410Z,60.40
2017-12-06T20:31:59.013Z,60.80
2017-12-06T20:34:12.305Z,60.80
2017-12-06T20:38:33.407Z,61.90
2017-12-06T20:40:42.338Z,61.30
2017-12-06T20:42:57.438Z,60.50
2017-12-06T20:45:00.298Z,60.50
2017-12-06T20:49:29.533Z,61.60
2017-12-06T20:51:36.907Z,61.70
2017-12-06T20:53:47.177Z,61.50
2017-12-06T21:02:32.188Z,59.20
2017-12-06T21:04:41.475Z,59.60
2017-12-06T21:06:51.841Z,59.60
2017-12-06T21:15:15.371Z,58.80
2017-12-06T21:26:44.326Z,58.60
2017-12-06T21:30:28.467Z,58.00
2017-12-06T21:35:11.124Z,57.90
2017-12-06T21:37:40.596Z,58.20
2017-12-06T21:42:01.949Z,57.80
2017-12-06T21:43:56.368Z,57.80
2017-12-06T21:45:47.546Z,57.50
2017-12-06T21:47:35.941Z,57.60
2017-12-06T21:49:25.286Z,57.80
2017-12-06T21:51:10.758Z,57.30
2017-12-06T21:52:56.287Z,57.40
2017-12-06T21:54:42.632Z,57.30
2017-12-06T21:56:27.980Z,56.60
2017-12-06T21:58:13.471Z,56.60
2017-12-06T22:00:01.695Z,56.70
2017-12-06T22:01:50.576Z,56.60
2017-12-06T22:03:35.877Z,58.00
2017-12-06T22:05:23.822Z,56.30
2017-12-06T22:07:12.279Z,55.60
2017-12-06T22:09:00.691Z,55.30
2017-12-06T22:10:46.578Z,56.20
2017-12-06T22:12:38.022Z,57.80
2017-12-06T22:14:25.926Z,57.60
2017-12-06T22:16:16.509Z,56.20
2017-12-06T22:20:05.582Z,55.70
2017-12-06T22:21:50.178Z,55.60
2017-12-06T22:23:30.167Z,55.20
2017-12-06T22:25:14.364Z,55.10
2017-12-06T22:27:01.470Z,56.40
2017-12-06T22:28:42.064Z,55.50
2017-12-06T22:30:25.970Z,55.60
2017-12-06T22:32:22.722Z,55.80
2017-12-06T22:34:05.445Z,55.90
2017-12-06T22:35:45.856Z,55.20
2017-12-06T22:37:25.554Z,55.50
2017-12-06T22:41:54.302Z,56.20
2017-12-06T22:43:37.869Z,56.20
2017-12-06T22:45:33.650Z,56.00
2017-12-06T22:48:53.238Z,57.00
2017-12-06T22:50:36.489Z,57.40
2017-12-06T22:52:18.265Z,56.90
2017-12-06T22:54:05.767Z,57.10
2017-12-06T22:55:50.478Z,56.40
2017-12-06T22:57:33.570Z,56.20
2017-12-06T22:59:23.774Z,56.20
2017-12-06T23:01:11.783Z,56.70
2017-12-06T23:02:56.596Z,56.70
2017-12-06T23:04:40.978Z,56.80
2017-12-06T23:06:21.279Z,56.80
2017-12-06T23:08:04.092Z,56.80
2017-12-06T23:09:47.094Z,55.90
2017-12-06T23:11:36.593Z,56.50
2017-12-06T23:13:17.919Z,56.40
2017-12-06T23:14:59.493Z,56.50
2017-12-06T23:16:41.208Z,55.80
2017-12-06T23:18:22.196Z,56.00
2017-12-06T23:20:03.622Z,57.10
2017-12-06T23:21:45.417Z,58.10
2017-12-06T23:23:32.117Z,57.80
2017-12-06T23:25:17.112Z,56.70
2017-12-06T23:26:59.315Z,56.20
2017-12-06T23:28:42.489Z,56.10
2017-12-06T23:30:32.394Z,55.40
2017-12-06T23:32:14.778Z,54.80
2017-12-06T23:33:55.802Z,55.00
2017-12-06T23:35:37.871Z,55.30